Riverside Resolute — VHKQ — position and weather

sailwx.info

Track history (hours):
 
Tides and Currents Weather Stations Pressure Air Temp Water Temp Dewpoint Dewpoint Depression Visibility Wind Speed Wind Dir Waves Ship Positions

Riverside Resolute

Last reported at 2018-Apr-21 03:32 UTC. Time now 2018-Apr-24 16:26 UTC.
Position S 27°27' E 153°03'.

Length 78 m; draft 3.5 m.

Type: Ship. MMSI: 503032150.

Date/timePositionNaut miles runAvg speedWind from/ knotsBaromVisibWave heightAir tempDewpointWater temp
2018-Apr-21 03:32S 27°27' E 153°03'0 0.0
2018-Apr-21 03:29S 27°27' E 153°03'0 0.0
2018-Apr-20 22:52S 27°27' E 153°03'0 0.0
2018-Apr-20 20:55S 27°27' E 153°03'0 0.0
2018-Apr-20 20:28S 27°27' E 153°03'0 0.0
2018-Apr-20 19:34S 27°27' E 153°03'0 0.1
2018-Apr-20 19:28S 27°27' E 153°03'0 0.0
2018-Apr-20 18:46S 27°27' E 153°03'0 0.0
2018-Apr-20 11:52S 27°27' E 153°03'  
2018-Apr-17 20:21S 27°27' E 153°06'2 0.2
2018-Apr-17 10:21S 27°25' E 153°08'1 2.4
2018-Apr-17 10:00S 27°25' E 153°09'4 7.5
2018-Apr-17 09:27S 27°21' E 153°11'4 9.3
2018-Apr-17 09:00S 27°18' E 153°13'4 8.1
2018-Apr-17 08:30S 27°15' E 153°16'5 9.4
2018-Apr-17 07:58S 27°10' E 153°19'4 8.7
2018-Apr-17 07:29S 27°06' E 153°19'3 1.7
2018-Apr-17 05:56S 27°04' E 153°18'0 0.1
2018-Apr-17 04:38S 27°04' E 153°18'8 7.5
2018-Apr-17 03:37S 27°12' E 153°17'110.5
2018-Apr-17 03:30S 27°13' E 153°17'10 9.7
2018-Apr-17 02:31S 27°21' E 153°11'011.0
2018-Apr-17 02:30S 27°21' E 153°11'5 0.3
2018-Apr-16 10:14S 27°26' E 153°08'0 1.7
2018-Apr-16 10:00S 27°25' E 153°08'3 5.1
2018-Apr-16 09:30S 27°23' E 153°09'2 4.9
2018-Apr-16 09:00S 27°21' E 153°11'4 8.4
2018-Apr-16 08:30S 27°17' E 153°14'4 7.4
2018-Apr-16 08:00S 27°14' E 153°16'4 7.7
2018-Apr-16 07:30S 27°12' E 153°19'4 7.9
2018-Apr-16 07:00S 27°08' E 153°21'5 7.6
2018-Apr-16 06:24S 27°04' E 153°18'0 0.2
2018-Apr-16 06:00S 27°04' E 153°18'0 0.1
2018-Apr-16 04:58S 27°04' E 153°18'0 0.2
2018-Apr-16 03:58S 27°04' E 153°18'5 7.1
2018-Apr-16 03:15S 27°09' E 153°20'310.8
2018-Apr-16 02:58S 27°11' E 153°19'510.0
2018-Apr-16 02:30S 27°15' E 153°16'6 9.3
2018-Apr-16 01:53S 27°20' E 153°12'4 9.6
2018-Apr-16 01:29S 27°23' E 153°09'3 0.3
2018-Apr-15 17:55S 27°26' E 153°08'0 0.0
2018-Apr-15 17:30S 27°26' E 153°08'0 0.0
2018-Apr-15 16:59S 27°26' E 153°08'0 0.0
2018-Apr-15 16:29S 27°26' E 153°08'0 0.0
2018-Apr-15 13:02S 27°26' E 153°08'0 0.0
2018-Apr-15 12:56S 27°26' E 153°08'0 0.0
2018-Apr-15 09:29S 27°25' E 153°08'2 4.4
2018-Apr-15 09:00S 27°24' E 153°09'2 4.4
2018-Apr-15 08:30S 27°22' E 153°10'4 8.0
2018-Apr-15 08:00S 27°18' E 153°13'5 9.5
2018-Apr-15 07:31S 27°15' E 153°16'810.1
2018-Apr-15 06:44S 27°08' E 153°21'310.2
2018-Apr-15 06:27S 27°06' E 153°19'2 3.7
2018-Apr-15 05:49S 27°04' E 153°18'0 1.3
2018-Apr-15 05:30S 27°04' E 153°18'0 0.7
2018-Apr-15 04:51S 27°04' E 153°18'0 1.4
2018-Apr-15 04:31S 27°04' E 153°18'0 0.1
2018-Apr-15 03:29S 27°04' E 153°18'6 7.7
2018-Apr-15 02:43S 27°10' E 153°20'210.3
2018-Apr-15 02:30S 27°12' E 153°19'11 9.4
2018-Apr-15 01:19S 27°21' E 153°11'3 9.1
2018-Apr-15 00:58S 27°23' E 153°09'2 0.1
2018-Apr-14 08:34S 27°25' E 153°08'1 8.3
2018-Apr-14 08:30S 27°25' E 153°09'4 8.6
2018-Apr-14 08:00S 27°21' E 153°11'4 8.6
2018-Apr-14 07:30S 27°17' E 153°14'4 7.2
2018-Apr-14 07:00S 27°15' E 153°16'8 7.9
2018-Apr-14 06:02S 27°08' E 153°21'0 9.3
2018-Apr-14 06:00S 27°08' E 153°21'5 8.5
2018-Apr-14 05:28S 27°04' E 153°18'0 0.2
2018-Apr-14 04:50S 27°04' E 153°18'0 0.1
2018-Apr-14 03:47S 27°04' E 153°18'0 0.0
2018-Apr-14 02:36S 27°04' E 153°18'8 8.2
2018-Apr-14 01:39S 27°12' E 153°19'2 9.9
2018-Apr-14 01:29S 27°13' E 153°18'6 9.6
2018-Apr-14 00:54S 27°18' E 153°14'410.2
2018-Apr-14 00:30S 27°21' E 153°11'9 0.3
2018-Apr-12 18:31S 27°27' E 153°03'0 2.7
2018-Apr-12 18:23S 27°27' E 153°03'2 5.3
2018-Apr-12 17:56S 27°27' E 153°06'3 6.9
2018-Apr-12 17:28S 27°25' E 153°09'4 8.4
2018-Apr-12 17:00S 27°22' E 153°11'4 8.6
2018-Apr-12 16:30S 27°18' E 153°13'5 9.5
2018-Apr-12 16:00S 27°14' E 153°17'6 8.8
2018-Apr-12 15:19S 27°09' E 153°20'3 8.0
2018-Apr-12 15:00S 27°06' E 153°19'3 5.9
2018-Apr-12 14:30S 27°04' E 153°17'1 1.3
2018-Apr-12 14:00S 27°03' E 153°17'1 0.8
2018-Apr-12 13:15S 27°04' E 153°17'0 0.9
2018-Apr-12 13:00S 27°04' E 153°17'1 1.2
2018-Apr-12 12:28S 27°03' E 153°17'1 1.3
2018-Apr-12 11:49S 27°04' E 153°17'0 1.3
2018-Apr-12 11:30S 27°04' E 153°18'5 6.8
2018-Apr-12 10:49S 27°09' E 153°20'3 9.8
2018-Apr-12 10:30S 27°11' E 153°19'5 9.8
2018-Apr-12 10:00S 27°15' E 153°15'5 9.7
2018-Apr-12 09:30S 27°19' E 153°12'5 9.5
2018-Apr-12 09:00S 27°23' E 153°09'6 0.4
2018-Apr-11 17:51S 27°18' E 153°13'3 6.0
2018-Apr-11 17:24S 27°16' E 153°15'7 1.4
2018-Apr-11 12:06S 27°10' E 153°19'3 9.8
2018-Apr-11 11:49S 27°13' E 153°18'12 9.8
2018-Apr-11 10:35S 27°22' E 153°10'  
Track history (hours):
 
Tides and Currents Weather Stations Pressure Air Temp Water Temp Dewpoint Dewpoint Depression Visibility Wind Speed Wind Dir Waves Ship Positions

Riverside Resolute

Last reported at 2018-Apr-21 03:32 UTC. Time now 2018-Apr-24 16:26 UTC.
Position S 27°27' E 153°03'.

Length 78 m; draft 3.5 m.

Type: Ship. MMSI: 503032150.

Date/timePositionNaut miles runAvg speedWind from/ knotsBaromVisibWave heightAir tempDewpointWater temp
2018-Apr-21 03:32S 27°27' E 153°03'0 0.0
2018-Apr-21 03:29S 27°27' E 153°03'0 0.0
2018-Apr-20 22:52S 27°27' E 153°03'0 0.0
2018-Apr-20 20:55S 27°27' E 153°03'0 0.0
2018-Apr-20 20:28S 27°27' E 153°03'0 0.0
2018-Apr-20 19:34S 27°27' E 153°03'0 0.1
2018-Apr-20 19:28S 27°27' E 153°03'0 0.0
2018-Apr-20 18:46S 27°27' E 153°03'0 0.0
2018-Apr-20 11:52S 27°27' E 153°03'  
2018-Apr-17 20:21S 27°27' E 153°06'2 0.2
2018-Apr-17 10:21S 27°25' E 153°08'1 2.4
2018-Apr-17 10:00S 27°25' E 153°09'4 7.5
2018-Apr-17 09:27S 27°21' E 153°11'4 9.3
2018-Apr-17 09:00S 27°18' E 153°13'4 8.1
2018-Apr-17 08:30S 27°15' E 153°16'5 9.4
2018-Apr-17 07:58S 27°10' E 153°19'4 8.7
2018-Apr-17 07:29S 27°06' E 153°19'3 1.7
2018-Apr-17 05:56S 27°04' E 153°18'0 0.1
2018-Apr-17 04:38S 27°04' E 153°18'8 7.5
2018-Apr-17 03:37S 27°12' E 153°17'110.5
2018-Apr-17 03:30S 27°13' E 153°17'10 9.7
2018-Apr-17 02:31S 27°21' E 153°11'011.0
2018-Apr-17 02:30S 27°21' E 153°11'5 0.3
2018-Apr-16 10:14S 27°26' E 153°08'0 1.7
2018-Apr-16 10:00S 27°25' E 153°08'3 5.1
2018-Apr-16 09:30S 27°23' E 153°09'2 4.9
2018-Apr-16 09:00S 27°21' E 153°11'4 8.4
2018-Apr-16 08:30S 27°17' E 153°14'4 7.4
2018-Apr-16 08:00S 27°14' E 153°16'4 7.7
2018-Apr-16 07:30S 27°12' E 153°19'4 7.9
2018-Apr-16 07:00S 27°08' E 153°21'5 7.6
2018-Apr-16 06:24S 27°04' E 153°18'0 0.2
2018-Apr-16 06:00S 27°04' E 153°18'0 0.1
2018-Apr-16 04:58S 27°04' E 153°18'0 0.2
2018-Apr-16 03:58S 27°04' E 153°18'5 7.1
2018-Apr-16 03:15S 27°09' E 153°20'310.8
2018-Apr-16 02:58S 27°11' E 153°19'510.0
2018-Apr-16 02:30S 27°15' E 153°16'6 9.3
2018-Apr-16 01:53S 27°20' E 153°12'4 9.6
2018-Apr-16 01:29S 27°23' E 153°09'3 0.3
2018-Apr-15 17:55S 27°26' E 153°08'0 0.0
2018-Apr-15 17:30S 27°26' E 153°08'0 0.0
2018-Apr-15 16:59S 27°26' E 153°08'0 0.0
2018-Apr-15 16:29S 27°26' E 153°08'0 0.0
2018-Apr-15 13:02S 27°26' E 153°08'0 0.0
2018-Apr-15 12:56S 27°26' E 153°08'0 0.0
2018-Apr-15 09:29S 27°25' E 153°08'2 4.4
2018-Apr-15 09:00S 27°24' E 153°09'2 4.4
2018-Apr-15 08:30S 27°22' E 153°10'4 8.0
2018-Apr-15 08:00S 27°18' E 153°13'5 9.5
2018-Apr-15 07:31S 27°15' E 153°16'810.1
2018-Apr-15 06:44S 27°08' E 153°21'310.2
2018-Apr-15 06:27S 27°06' E 153°19'2 3.7
2018-Apr-15 05:49S 27°04' E 153°18'0 1.3
2018-Apr-15 05:30S 27°04' E 153°18'0 0.7
2018-Apr-15 04:51S 27°04' E 153°18'0 1.4
2018-Apr-15 04:31S 27°04' E 153°18'0 0.1
2018-Apr-15 03:29S 27°04' E 153°18'6 7.7
2018-Apr-15 02:43S 27°10' E 153°20'210.3
2018-Apr-15 02:30S 27°12' E 153°19'11 9.4
2018-Apr-15 01:19S 27°21' E 153°11'3 9.1
2018-Apr-15 00:58S 27°23' E 153°09'2 0.1
2018-Apr-14 08:34S 27°25' E 153°08'1 8.3
2018-Apr-14 08:30S 27°25' E 153°09'4 8.6
2018-Apr-14 08:00S 27°21' E 153°11'4 8.6
2018-Apr-14 07:30S 27°17' E 153°14'4 7.2
2018-Apr-14 07:00S 27°15' E 153°16'8 7.9
2018-Apr-14 06:02S 27°08' E 153°21'0 9.3
2018-Apr-14 06:00S 27°08' E 153°21'5 8.5
2018-Apr-14 05:28S 27°04' E 153°18'0 0.2
2018-Apr-14 04:50S 27°04' E 153°18'0 0.1
2018-Apr-14 03:47S 27°04' E 153°18'0 0.0
2018-Apr-14 02:36S 27°04' E 153°18'8 8.2
2018-Apr-14 01:39S 27°12' E 153°19'2 9.9
2018-Apr-14 01:29S 27°13' E 153°18'6 9.6
2018-Apr-14 00:54S 27°18' E 153°14'410.2
2018-Apr-14 00:30S 27°21' E 153°11'9 0.3
2018-Apr-12 18:31S 27°27' E 153°03'0 2.7
2018-Apr-12 18:23S 27°27' E 153°03'2 5.3
2018-Apr-12 17:56S 27°27' E 153°06'3 6.9
2018-Apr-12 17:28S 27°25' E 153°09'4 8.4
2018-Apr-12 17:00S 27°22' E 153°11'4 8.6
2018-Apr-12 16:30S 27°18' E 153°13'5 9.5
2018-Apr-12 16:00S 27°14' E 153°17'6 8.8
2018-Apr-12 15:19S 27°09' E 153°20'3 8.0
2018-Apr-12 15:00S 27°06' E 153°19'3 5.9
2018-Apr-12 14:30S 27°04' E 153°17'1 1.3
2018-Apr-12 14:00S 27°03' E 153°17'1 0.8
2018-Apr-12 13:15S 27°04' E 153°17'0 0.9
2018-Apr-12 13:00S 27°04' E 153°17'1 1.2
2018-Apr-12 12:28S 27°03' E 153°17'1 1.3
2018-Apr-12 11:49S 27°04' E 153°17'0 1.3
2018-Apr-12 11:30S 27°04' E 153°18'5 6.8
2018-Apr-12 10:49S 27°09' E 153°20'3 9.8
2018-Apr-12 10:30S 27°11' E 153°19'5 9.8
2018-Apr-12 10:00S 27°15' E 153°15'5 9.7
2018-Apr-12 09:30S 27°19' E 153°12'5 9.5
2018-Apr-12 09:00S 27°23' E 153°09'6 0.4
2018-Apr-11 17:51S 27°18' E 153°13'3 6.0
2018-Apr-11 17:24S 27°16' E 153°15'7 1.4
2018-Apr-11 12:06S 27°10' E 153°19'3 9.8
2018-Apr-11 11:49S 27°13' E 153°18'12 9.8
2018-Apr-11 10:35S 27°22' E 153°10'  

Dump ship's entire track history